Terminal Aerodrome Forecast
Issued by NWS

Home | Current Version | Previous Version | Text Only | Print | Product List | Glossary On
Versions: 1 2 3 4 5 6 7 8 9 10 11 12 13 14 15 16 17 18 19 20 21 22 23 24
497
FTUS43 KSGF 272320
TAFJLN
TAF
KJLN 272320Z 2800/2824 20004KT P6SM VCTS SCT040CB SCT060
     FM280500 18008KT P6SM VCTS BKN040CB BKN120
     FM281200 19010KT P6SM SCT008 BKN015
     FM281600 21012KT P6SM VCTS BKN025CB BKN100
     FM282000 21010KT P6SM BKN250=

USA.gov is the U.S. government's official web portal to all federal, state and local government web resources and services.